Time;durP1;ratioP1;P1;durP2;ratioP2;P2;SDS_P1;SDS_P2;PMS_P1;PMS_P2;Temp;Humidity;BMP_temperature;BMP_pressure;BME280_temperature;BME280_humidity;BME280_pressure;Samples;Min_cycle;Max_cycle;Signal;HPM_P1;HPM_P2
2022/03/03 00:00:27;;;;;;;5.93;3.93;;;-1.00;99.90;;;;;;5033752;28;20382;-76
2022/03/03 00:02:52;;;;;;;5.23;4.00;;;-1.20;99.90;;;;;;5033653;28;20196;-76
2022/03/03 00:05:18;;;;;;;4.90;3.90;;;-1.20;99.90;;;;;;5033483;28;20192;-76
2022/03/03 00:07:44;;;;;;;4.73;3.83;;;-1.30;99.90;;;;;;5050132;28;20216;-76
2022/03/03 00:10:10;;;;;;;5.77;4.03;;;-1.30;99.90;;;;;;5033403;28;20185;-76
2022/03/03 00:12:36;;;;;;;6.00;4.00;;;-1.30;99.90;;;;;;5033347;28;20208;-76
2022/03/03 00:15:02;;;;;;;6.57;4.37;;;-1.30;99.90;;;;;;5016862;28;20648;-77
2022/03/03 00:17:27;;;;;;;6.40;4.20;;;-1.20;99.90;;;;;;5033764;28;20203;-76
2022/03/03 00:19:53;;;;;;;5.33;3.97;;;-1.20;99.90;;;;;;5051262;28;20558;-76
2022/03/03 00:22:18;;;;;;;6.03;4.00;;;-1.40;99.90;;;;;;5033320;28;20227;-77
2022/03/03 00:24:44;;;;;;;7.03;4.40;;;-1.40;99.90;;;;;;5035840;28;20615;-76
2022/03/03 00:27:11;;;;;;;6.20;4.00;;;-1.40;99.90;;;;;;5053470;28;20199;-77
2022/03/03 00:29:36;;;;;;;5.87;4.07;;;-1.40;99.90;;;;;;5055085;28;20255;-76
2022/03/03 00:32:02;;;;;;;6.80;4.20;;;-1.40;99.90;;;;;;5020332;28;20271;-76
2022/03/03 00:34:28;;;;;;;6.00;3.93;;;-1.30;99.90;;;;;;5036530;28;20179;-76
2022/03/03 00:36:54;;;;;;;5.77;3.93;;;-1.30;99.90;;;;;;5036784;28;20271;-76
2022/03/03 00:39:19;;;;;;;6.07;4.17;;;-1.20;99.90;;;;;;5036755;28;20178;-76
2022/03/03 00:41:45;;;;;;;4.90;3.83;;;-1.20;99.90;;;;;;5019836;28;20203;-76
2022/03/03 00:44:10;;;;;;;6.37;4.43;;;-1.10;99.90;;;;;;5036527;28;20181;-76
2022/03/03 00:46:37;;;;;;;7.07;4.37;;;-1.00;99.90;;;;;;5036296;28;20307;-76
2022/03/03 00:49:03;;;;;;;6.40;4.37;;;-1.10;99.90;;;;;;5036593;28;20213;-76
2022/03/03 00:51:29;;;;;;;5.87;3.90;;;-1.00;99.90;;;;;;5036292;28;20233;-76
2022/03/03 00:53:55;;;;;;;6.33;4.10;;;-1.10;99.90;;;;;;5036085;28;20180;-76
2022/03/03 00:56:20;;;;;;;6.37;4.60;;;-1.30;99.90;;;;;;5019681;28;20193;-76
2022/03/03 00:58:46;;;;;;;6.70;4.33;;;-1.40;99.90;;;;;;5036602;28;20177;-77
2022/03/03 01:01:12;;;;;;;8.00;4.60;;;-1.40;99.90;;;;;;5019864;28;20204;-76
2022/03/03 01:03:38;;;;;;;7.10;4.17;;;-1.40;99.90;;;;;;5036082;28;20192;-76
2022/03/03 01:06:04;;;;;;;6.87;4.33;;;-1.40;99.90;;;;;;5019705;28;20201;-76
2022/03/03 01:08:30;;;;;;;5.83;3.93;;;-1.50;99.90;;;;;;5052731;28;20188;-76
2022/03/03 01:10:55;;;;;;;5.50;3.93;;;-1.60;99.90;;;;;;5036268;28;20195;-76
2022/03/03 01:13:22;;;;;;;6.13;4.43;;;-1.60;99.90;;;;;;5019579;28;20178;-76
2022/03/03 01:15:48;;;;;;;6.23;4.57;;;-1.70;99.90;;;;;;5036245;28;20208;-76
2022/03/03 01:18:15;;;;;;;6.13;4.57;;;-1.60;99.90;;;;;;5019554;28;20188;-76
2022/03/03 01:20:41;;;;;;;6.67;4.70;;;-1.70;99.90;;;;;;5035657;28;20361;-76
2022/03/03 01:23:07;;;;;;;6.27;4.63;;;-1.80;99.90;;;;;;5035711;28;20263;-76
2022/03/03 01:25:33;;;;;;;6.27;4.83;;;-1.70;99.90;;;;;;5035827;28;20181;-76
2022/03/03 01:27:58;;;;;;;5.90;4.57;;;-1.60;99.90;;;;;;5035937;28;20171;-76
2022/03/03 01:30:24;;;;;;;6.47;4.50;;;-1.70;99.90;;;;;;5035677;28;20355;-76
2022/03/03 01:32:50;;;;;;;7.77;4.70;;;-1.80;99.90;;;;;;5035419;28;20215;-76
2022/03/03 01:35:15;;;;;;;6.90;4.70;;;-1.90;99.90;;;;;;5018728;28;20187;-76
2022/03/03 01:37:41;;;;;;;6.63;4.40;;;-2.00;99.90;;;;;;5019200;28;20189;-76
2022/03/03 01:40:07;;;;;;;6.83;4.57;;;-2.10;99.90;;;;;;5018913;28;20181;-76
2022/03/03 01:42:33;;;;;;;7.63;4.13;;;-1.90;99.90;;;;;;5035472;28;20182;-76
2022/03/03 01:44:59;;;;;;;5.87;4.13;;;-1.80;99.90;;;;;;5035355;28;20173;-76
2022/03/03 01:47:27;;;;;;;6.87;4.57;;;-1.70;99.90;;;;;;5035486;28;20717;-77
2022/03/03 01:49:55;;;;;;;6.33;4.13;;;-1.70;99.90;;;;;;5035559;28;20202;-76
2022/03/03 01:52:21;;;;;;;5.63;4.13;;;-1.70;99.90;;;;;;5035225;28;20278;-76
2022/03/03 01:54:47;;;;;;;6.80;4.60;;;-1.60;99.90;;;;;;5035028;28;20267;-76
2022/03/03 01:57:17;;;;;;;6.87;4.53;;;-1.70;99.90;;;;;;5035373;28;20174;-76
2022/03/03 01:59:43;;;;;;;7.37;5.00;;;-1.70;99.90;;;;;;5019039;28;20182;-76
2022/03/03 02:02:10;;;;;;;7.37;4.77;;;-1.90;99.90;;;;;;5035040;28;20204;-76
2022/03/03 02:04:36;;;;;;;7.13;4.80;;;-1.90;99.90;;;;;;5034934;28;20232;-76
2022/03/03 02:07:02;;;;;;;7.47;4.77;;;-1.80;99.90;;;;;;5034853;28;20215;-76
2022/03/03 02:09:28;;;;;;;7.20;4.70;;;-1.70;99.90;;;;;;5018737;28;20182;-76
2022/03/03 02:11:54;;;;;;;9.20;5.23;;;-1.70;99.90;;;;;;5035076;28;20636;-76
2022/03/03 02:14:19;;;;;;;6.33;5.17;;;-1.70;99.90;;;;;;5034871;28;20183;-76
2022/03/03 02:16:45;;;;;;;8.20;5.60;;;-1.70;99.90;;;;;;5018355;28;20230;-76
2022/03/03 02:19:18;;;;;;;10.17;6.10;;;-1.80;99.90;;;;;;5034864;28;20183;-76
2022/03/03 02:21:50;;;;;;;11.50;6.27;;;-1.90;99.90;;;;;;5034537;28;20211;-76
2022/03/03 02:24:17;;;;;;;8.80;6.03;;;-2.10;99.90;;;;;;5034565;28;20188;-76
2022/03/03 02:26:43;;;;;;;9.10;6.10;;;-2.20;99.90;;;;;;5051361;28;20569;-77
2022/03/03 02:29:09;;;;;;;8.67;5.77;;;-2.20;99.90;;;;;;5034652;28;20174;-76
2022/03/03 02:31:34;;;;;;;8.87;5.80;;;-2.10;99.90;;;;;;5018202;28;20275;-76
2022/03/03 02:34:00;;;;;;;9.00;6.23;;;-2.20;99.90;;;;;;5017937;28;20191;-76
2022/03/03 02:36:28;;;;;;;9.47;5.73;;;-2.20;99.90;;;;;;5034689;28;20644;-76
2022/03/03 02:38:56;;;;;;;7.83;5.80;;;-2.20;99.90;;;;;;5034433;28;20228;-76
2022/03/03 02:41:22;;;;;;;9.47;6.20;;;-2.10;99.90;;;;;;5034677;28;20197;-76
2022/03/03 02:43:48;;;;;;;7.53;5.70;;;-2.10;99.90;;;;;;5017792;28;20202;-76
2022/03/03 02:46:14;;;;;;;10.13;6.07;;;-2.20;99.90;;;;;;5033307;28;20198;-76
2022/03/03 02:48:40;;;;;;;7.30;5.20;;;-2.30;99.90;;;;;;5034341;28;20188;-76
2022/03/03 02:51:08;;;;;;;7.77;4.90;;;-2.40;99.90;;;;;;5034189;28;20198;-76
2022/03/03 02:53:34;;;;;;;7.90;4.90;;;-2.50;99.90;;;;;;5017571;28;20182;-76
2022/03/03 02:56:01;;;;;;;7.33;4.47;;;-2.40;99.90;;;;;;5050870;28;20189;-76
2022/03/03 02:58:26;;;;;;;6.60;4.83;;;-2.20;99.90;;;;;;5034310;28;20188;-76
2022/03/03 03:00:52;;;;;;;6.37;4.73;;;-2.20;99.90;;;;;;5050797;28;20205;-76
2022/03/03 03:03:19;;;;;;;7.20;4.60;;;-2.20;99.90;;;;;;5033897;28;20210;-76
2022/03/03 03:05:46;;;;;;;6.43;4.70;;;-2.10;99.90;;;;;;5034109;28;20248;-76
2022/03/03 03:08:13;;;;;;;7.40;4.53;;;-2.20;99.90;;;;;;5034450;28;20182;-76
2022/03/03 03:10:39;;;;;;;7.70;4.93;;;-2.10;99.90;;;;;;5034236;28;20222;-76
2022/03/03 03:13:06;;;;;;;8.20;4.93;;;-2.10;99.90;;;;;;5034029;28;20223;-76
2022/03/03 03:15:33;;;;;;;8.40;5.33;;;-2.20;99.90;;;;;;5034039;28;20219;-76
2022/03/03 03:18:28;;;;;;;8.20;5.40;;;-2.20;99.90;;;;;;5050554;28;20590;-76
2022/03/03 03:20:53;;;;;;;8.50;5.87;;;-2.20;99.90;;;;;;5008638;28;20227;-76
2022/03/03 03:23:22;;;;;;;9.33;5.67;;;-2.10;99.90;;;;;;5033661;28;20178;-76
2022/03/03 03:25:48;;;;;;;9.87;6.10;;;-2.10;99.90;;;;;;5033959;28;20247;-76
2022/03/03 03:28:15;;;;;;;8.97;5.63;;;-2.30;99.90;;;;;;5033745;28;20237;-76
2022/03/03 03:30:42;;;;;;;8.33;5.50;;;-2.40;99.90;;;;;;5034321;28;20198;-76
2022/03/03 03:33:07;;;;;;;8.57;5.93;;;-2.50;99.90;;;;;;5051493;28;20557;-76
2022/03/03 03:35:34;;;;;;;7.60;5.50;;;-2.70;99.90;;;;;;5034052;28;20264;-76
2022/03/03 03:38:00;;;;;;;8.40;5.60;;;-2.70;99.90;;;;;;5033686;28;20185;-76
2022/03/03 03:40:26;;;;;;;9.80;5.83;;;-2.60;99.90;;;;;;5033733;28;20202;-76
2022/03/03 03:42:51;;;;;;;7.20;4.90;;;-2.60;99.90;;;;;;5050319;28;20192;-76
2022/03/03 03:45:17;;;;;;;9.63;5.63;;;-2.50;99.90;;;;;;5017159;28;20212;-76
2022/03/03 03:47:43;;;;;;;7.23;5.23;;;-2.50;99.90;;;;;;5033948;28;20214;-76
2022/03/03 03:50:11;;;;;;;10.63;5.83;;;-2.50;99.90;;;;;;5033575;28;20177;-76
2022/03/03 03:52:38;;;;;;;9.83;5.80;;;-2.40;99.90;;;;;;5033729;28;20178;-76
2022/03/03 03:55:09;;;;;;;8.97;5.83;;;-2.30;99.90;;;;;;5033596;28;20182;-77
2022/03/03 03:57:35;;;;;;;8.37;5.80;;;-2.50;99.90;;;;;;5034693;28;20592;-76
2022/03/03 04:00:01;;;;;;;9.77;6.10;;;-2.60;99.90;;;;;;5021201;28;20178;-76
2022/03/03 04:02:27;;;;;;;8.23;5.70;;;-2.60;99.90;;;;;;5053965;28;20288;-76
2022/03/03 04:04:53;;;;;;;9.00;6.30;;;-2.70;99.90;;;;;;5037175;28;20265;-76
2022/03/03 04:07:19;;;;;;;8.00;5.73;;;-2.70;99.90;;;;;;5020723;28;20712;-76
2022/03/03 04:09:45;;;;;;;9.67;6.23;;;-2.70;99.90;;;;;;5037299;28;20232;-76
2022/03/03 04:12:11;;;;;;;9.80;6.50;;;-2.70;99.90;;;;;;5037137;28;20204;-76
2022/03/03 04:14:37;;;;;;;8.10;5.50;;;-2.80;99.90;;;;;;5037086;28;20166;-76
2022/03/03 04:17:03;;;;;;;10.03;6.77;;;-2.80;99.90;;;;;;5037225;28;20179;-76
2022/03/03 04:19:29;;;;;;;9.50;6.13;;;-2.80;99.90;;;;;;5053874;28;20650;-76
2022/03/03 04:21:54;;;;;;;10.20;6.77;;;-2.70;99.90;;;;;;5036742;28;20216;-76
2022/03/03 04:24:20;;;;;;;9.47;6.60;;;-2.70;99.90;;;;;;5036829;28;20609;-76
2022/03/03 04:26:46;;;;;;;10.37;6.43;;;-2.70;99.90;;;;;;5020347;28;20212;-76
2022/03/03 04:29:11;;;;;;;9.73;6.60;;;-2.60;99.90;;;;;;5020431;28;20180;-76
2022/03/03 04:31:37;;;;;;;10.40;6.33;;;-2.40;99.90;;;;;;5020593;28;20195;-76
2022/03/03 04:34:03;;;;;;;10.13;6.57;;;-2.50;99.90;;;;;;5036832;28;20269;-76
2022/03/03 04:36:29;;;;;;;9.97;6.37;;;-2.70;99.90;;;;;;5036652;28;20264;-76
2022/03/03 04:38:54;;;;;;;9.23;6.23;;;-2.80;99.90;;;;;;5020218;28;20241;-76
2022/03/03 04:41:20;;;;;;;11.43;6.73;;;-2.80;99.90;;;;;;5036534;28;20200;-76
2022/03/03 04:43:46;;;;;;;10.70;6.67;;;-2.80;99.90;;;;;;5036317;28;20173;-76
2022/03/03 04:46:13;;;;;;;9.70;6.30;;;-2.70;99.90;;;;;;5019996;28;20284;-76
2022/03/03 04:48:38;;;;;;;10.50;6.60;;;-2.50;99.90;;;;;;5036539;28;20239;-76
2022/03/03 04:51:04;;;;;;;9.63;5.87;;;-2.50;99.90;;;;;;5036577;28;20534;-76
2022/03/03 04:53:30;;;;;;;9.27;6.47;;;-2.50;99.90;;;;;;5036243;28;20220;-76
2022/03/03 04:55:57;;;;;;;10.63;6.00;;;-2.50;99.90;;;;;;5036343;28;20200;-76
2022/03/03 04:58:23;;;;;;;10.00;6.43;;;-2.40;99.90;;;;;;5036606;28;20268;-76
2022/03/03 05:00:49;;;;;;;10.87;6.83;;;-2.40;99.90;;;;;;5036265;28;20271;-76
2022/03/03 05:03:16;;;;;;;9.53;6.20;;;-2.60;99.90;;;;;;5036022;28;20241;-76
2022/03/03 05:05:41;;;;;;;8.20;6.07;;;-2.50;99.90;;;;;;5036071;28;20178;-76
2022/03/03 05:08:07;;;;;;;9.70;6.00;;;-2.60;99.90;;;;;;5036296;28;20185;-76
2022/03/03 05:10:33;;;;;;;9.97;6.60;;;-2.60;99.90;;;;;;5018742;28;20193;-76
2022/03/03 05:12:58;;;;;;;8.90;5.73;;;-2.50;99.90;;;;;;5019775;28;20177;-76
2022/03/03 05:15:24;;;;;;;10.13;6.23;;;-2.70;99.90;;;;;;5035999;28;20228;-76
2022/03/03 05:17:50;;;;;;;8.57;5.90;;;-2.70;99.90;;;;;;5035990;28;20173;-76
2022/03/03 05:20:16;;;;;;;8.77;5.97;;;-2.60;99.90;;;;;;5035761;28;20184;-76
2022/03/03 05:22:42;;;;;;;11.10;6.60;;;-2.80;99.90;;;;;;5036331;28;20165;-77
2022/03/03 05:25:10;;;;;;;8.97;6.00;;;-3.00;99.90;;;;;;5036150;28;20265;-77
2022/03/03 05:27:36;;;;;;;8.80;6.03;;;-2.90;99.90;;;;;;5035709;28;20263;-77
2022/03/03 05:30:03;;;;;;;9.83;6.53;;;-2.90;99.90;;;;;;5035715;28;20177;-77
2022/03/03 05:32:29;;;;;;;11.50;6.80;;;-2.90;99.90;;;;;;5018996;28;20248;-77
2022/03/03 05:34:55;;;;;;;11.03;6.53;;;-2.90;99.90;;;;;;5035491;28;20176;-77
2022/03/03 05:37:24;;;;;;;10.20;5.90;;;-2.90;99.90;;;;;;5035488;28;20177;-77
2022/03/03 05:39:51;;;;;;;9.37;6.20;;;-2.90;99.90;;;;;;5035948;28;20186;-77
2022/03/03 05:42:19;;;;;;;9.33;6.13;;;-2.90;99.90;;;;;;5035408;28;20205;-77
2022/03/03 05:44:46;;;;;;;12.33;7.23;;;-2.90;99.90;;;;;;5035526;28;20182;-77
2022/03/03 05:47:13;;;;;;;9.70;6.50;;;-3.00;99.90;;;;;;5035173;28;20254;-77
2022/03/03 05:49:41;;;;;;;11.87;6.60;;;-3.30;99.90;;;;;;5035437;28;20227;-77
2022/03/03 05:52:08;;;;;;;10.80;6.70;;;-3.30;99.90;;;;;;5035175;28;20729;-76
2022/03/03 05:54:33;;;;;;;9.33;6.23;;;-3.20;99.90;;;;;;5051839;28;20657;-77
2022/03/03 05:57:01;;;;;;;11.50;6.87;;;-3.20;99.90;;;;;;5019262;28;20178;-76
2022/03/03 05:59:31;;;;;;;10.97;7.57;;;-3.30;99.90;;;;;;5018898;28;20204;-77
2022/03/03 06:01:58;;;;;;;8.93;6.40;;;-3.40;99.90;;;;;;5051760;28;20688;-76
2022/03/03 06:04:28;;;;;;;10.90;6.63;;;-3.40;99.90;;;;;;5034825;28;20174;-76
2022/03/03 06:07:07;;;;;;;10.40;6.77;;;-3.40;99.90;;;;;;5035199;28;20197;-76
2022/03/03 06:09:35;;;;;;;10.00;6.80;;;-3.50;99.90;;;;;;5018801;28;20173;-76
2022/03/03 06:12:19;;;;;;;9.73;6.67;;;-3.40;99.90;;;;;;5034989;28;20194;-76
2022/03/03 06:14:51;;;;;;;10.23;6.57;;;-3.30;99.90;;;;;;5034559;28;20704;-76
2022/03/03 06:17:21;;;;;;;10.43;6.53;;;-3.30;99.90;;;;;;5034850;28;20181;-76
2022/03/03 06:19:49;;;;;;;10.43;6.87;;;-3.30;99.90;;;;;;5034677;28;20173;-76
2022/03/03 06:22:15;;;;;;;11.13;6.90;;;-3.10;99.90;;;;;;5034554;28;20224;-76
2022/03/03 06:24:41;;;;;;;11.30;7.23;;;-3.20;99.90;;;;;;5034723;28;20184;-76
2022/03/03 06:27:08;;;;;;;12.20;6.27;;;-3.20;99.90;;;;;;5051082;28;20197;-76
2022/03/03 06:29:34;;;;;;;9.27;6.03;;;-2.00;99.90;;;;;;5034827;28;20181;-76
2022/03/03 06:32:02;;;;;;;11.87;6.93;;;-0.80;99.90;;;;;;5034792;28;20189;-76
2022/03/03 06:34:27;;;;;;;12.37;7.40;;;0.10;99.90;;;;;;5034562;28;20178;-76
2022/03/03 06:36:53;;;;;;;10.93;7.07;;;0.80;99.90;;;;;;5034647;28;20546;-76
2022/03/03 06:39:19;;;;;;;9.67;6.77;;;1.30;99.90;;;;;;5051246;28;20255;-78
2022/03/03 06:41:45;;;;;;;9.80;6.70;;;1.40;99.90;;;;;;5051176;28;20746;-77
2022/03/03 06:44:11;;;;;;;11.73;7.67;;;0.60;99.90;;;;;;5034437;28;20544;-77
2022/03/03 06:46:37;;;;;;;10.60;7.57;;;-0.30;99.90;;;;;;5034313;28;20296;-77
2022/03/03 06:49:02;;;;;;;10.70;7.40;;;-0.80;99.90;;;;;;5034329;28;20271;-77
2022/03/03 06:51:33;;;;;;;10.07;7.63;;;-1.40;99.90;;;;;;5034300;28;20205;-76
2022/03/03 06:54:02;;;;;;;11.93;7.57;;;-1.70;99.90;;;;;;5034138;28;20180;-77
2022/03/03 06:56:30;;;;;;;11.90;7.37;;;-1.80;99.90;;;;;;5034201;28;20185;-77
2022/03/03 06:58:59;;;;;;;11.67;8.30;;;-2.00;99.90;;;;;;5052085;28;20238;-77
2022/03/03 07:01:26;;;;;;;10.60;6.33;;;0.90;99.90;;;;;;5017565;28;20255;-78
2022/03/03 07:03:52;;;;;;;8.30;5.80;;;3.30;99.90;;;;;;5034137;28;20245;-78
2022/03/03 07:06:18;;;;;;;10.40;7.43;;;6.60;99.90;;;;;;5034615;28;20725;-78
2022/03/03 07:08:45;;;;;;;10.27;7.40;;;7.90;99.90;;;;;;5034194;28;20204;-78
2022/03/03 07:11:12;;;;;;;10.97;7.70;;;5.80;99.90;;;;;;5034010;28;20204;-78
2022/03/03 07:13:38;;;;;;;12.17;7.87;;;3.80;99.90;;;;;;5034228;28;20228;-77
2022/03/03 07:16:26;;;;;;;11.13;7.87;;;2.10;99.90;;;;;;5034109;28;20185;-78
2022/03/03 07:18:53;;;;;;;10.10;7.23;;;0.80;99.90;;;;;;5050636;28;20182;-77
2022/03/03 07:21:43;;;;;;;9.90;7.23;;;0.40;99.90;;;;;;5034017;28;20274;-77
2022/03/03 07:24:20;;;;;;;10.23;7.63;;;-0.10;99.90;;;;;;5033999;28;20179;-77
2022/03/03 07:26:49;;;;;;;11.10;8.00;;;-0.50;99.90;;;;;;5034084;28;20622;-77
2022/03/03 07:29:16;;;;;;;11.03;8.23;;;-0.90;99.90;;;;;;5033937;28;20173;-77
2022/03/03 07:31:50;;;;;;;10.70;7.97;;;-1.10;99.90;;;;;;5033831;28;20197;-77
2022/03/03 07:34:28;;;;;;;11.90;7.93;;;-1.10;99.90;;;;;;5054198;28;20181;-77
2022/03/03 07:36:57;;;;;;;12.67;7.80;;;-1.10;99.90;;;;;;5037743;28;20223;-77
2022/03/03 07:39:31;;;;;;;10.57;7.70;;;-1.10;99.90;;;;;;5037720;28;20207;-77
2022/03/03 07:41:58;;;;;;;10.57;7.80;;;-0.90;99.90;;;;;;5055558;28;20188;-77
2022/03/03 07:44:24;;;;;;;14.10;8.60;;;-0.90;99.90;;;;;;5037529;28;20255;-77
2022/03/03 07:46:50;;;;;;;12.47;8.60;;;-1.00;99.90;;;;;;5055740;28;20209;-77
2022/03/03 07:49:19;;;;;;;13.40;8.57;;;-0.90;99.90;;;;;;5037725;28;20714;-77
2022/03/03 07:51:45;;;;;;;13.77;8.40;;;-0.90;99.90;;;;;;5038135;28;20569;-77
2022/03/03 07:54:11;;;;;;;12.87;8.53;;;-0.80;99.90;;;;;;5037456;28;20179;-77
2022/03/03 07:56:41;;;;;;;14.53;8.07;;;-0.80;99.90;;;;;;5037562;28;20177;-77
2022/03/03 07:59:11;;;;;;;12.80;8.27;;;-0.80;99.90;;;;;;5051721;28;20230;-77
2022/03/03 08:01:38;;;;;;;13.67;8.83;;;-0.70;99.90;;;;;;5037055;28;20209;-77
2022/03/03 08:04:04;;;;;;;13.97;9.13;;;-0.70;99.90;;;;;;5037430;28;20215;-77
2022/03/03 08:06:32;;;;;;;13.80;9.03;;;-0.60;99.90;;;;;;5037427;28;20200;-77
2022/03/03 08:08:59;;;;;;;13.83;8.97;;;-0.60;99.90;;;;;;5037722;28;20173;-77
2022/03/03 08:11:27;;;;;;;14.80;9.23;;;-0.60;99.90;;;;;;5037246;28;20290;-77
2022/03/03 08:13:54;;;;;;;14.10;9.93;;;-0.50;99.90;;;;;;5020649;28;20192;-77
2022/03/03 08:16:20;;;;;;;15.27;9.67;;;-0.50;99.90;;;;;;5037121;28;20182;-77
2022/03/03 08:18:47;;;;;;;14.77;9.53;;;-0.40;99.90;;;;;;5037313;28;20188;-77
2022/03/03 08:21:16;;;;;;;16.23;10.37;;;-0.30;99.90;;;;;;5036884;28;20235;-77
2022/03/03 08:23:43;;;;;;;15.07;9.80;;;-0.20;99.90;;;;;;5036969;28;20180;-77
2022/03/03 08:26:12;;;;;;;15.70;10.00;;;-0.10;99.90;;;;;;5036873;28;20290;-77
2022/03/03 08:28:39;;;;;;;14.87;9.53;;;0.00;99.90;;;;;;5036874;28;20273;-77
2022/03/03 08:31:06;;;;;;;13.27;9.63;;;0.20;99.90;;;;;;5037040;28;20205;-77
2022/03/03 08:33:32;;;;;;;16.50;10.60;;;0.30;99.90;;;;;;5020133;28;20656;-77
2022/03/03 08:36:01;;;;;;;16.87;10.13;;;0.40;99.90;;;;;;5054685;28;20173;-77
2022/03/03 08:38:37;;;;;;;14.87;10.17;;;0.60;99.90;;;;;;5036819;28;20181;-77
2022/03/03 08:41:05;;;;;;;15.77;8.97;;;0.70;99.90;;;;;;5036751;28;20618;-77
2022/03/03 08:43:32;;;;;;;13.63;9.10;;;0.90;99.90;;;;;;5035985;28;20266;-77
2022/03/03 08:46:05;;;;;;;15.00;9.63;;;1.00;99.90;;;;;;5035938;28;20176;-77
2022/03/03 08:48:32;;;;;;;14.77;9.60;;;1.20;99.90;;;;;;5036725;28;20194;-77
2022/03/03 08:51:00;;;;;;;18.77;10.43;;;1.30;99.90;;;;;;5036522;28;20205;-77
2022/03/03 08:53:26;;;;;;;13.30;9.40;;;1.60;99.90;;;;;;5036520;28;20185;-77
2022/03/03 08:55:53;;;;;;;14.50;8.93;;;1.60;99.90;;;;;;5036640;28;20172;-77
2022/03/03 08:58:20;;;;;;;13.77;9.03;;;1.80;99.90;;;;;;5036615;28;20177;-77
2022/03/03 09:00:48;;;;;;;14.97;10.27;;;1.70;99.90;;;;;;5036431;28;20202;-77
2022/03/03 09:03:15;;;;;;;16.23;10.50;;;1.70;99.90;;;;;;5036148;28;20174;-77
2022/03/03 09:05:41;;;;;;;15.23;10.23;;;1.90;99.90;;;;;;5036405;28;20177;-78
2022/03/03 09:08:07;;;;;;;14.73;10.13;;;2.00;99.90;;;;;;5036174;28;20209;-78
2022/03/03 09:10:33;;;;;;;15.17;10.27;;;2.10;99.90;;;;;;5036124;28;20201;-77
2022/03/03 09:13:00;;;;;;;16.47;10.43;;;2.20;99.90;;;;;;5036158;28;20264;-77
2022/03/03 09:15:26;;;;;;;14.37;9.77;;;2.50;99.90;;;;;;5036012;28;20263;-77
2022/03/03 09:17:52;;;;;;;16.47;11.27;;;2.50;99.90;;;;;;5036019;28;20269;-77
2022/03/03 09:20:17;;;;;;;16.97;10.30;;;2.60;99.90;;;;;;5035657;28;20265;-78
2022/03/03 09:22:44;;;;;;;16.47;11.03;;;2.70;99.90;;;;;;5036300;28;20180;-78
2022/03/03 09:25:10;;;;;;;17.17;10.80;;;2.90;99.90;;;;;;5035945;28;20182;-78
2022/03/03 09:27:36;;;;;;;15.30;10.90;;;2.90;99.90;;;;;;5053681;28;20201;-78
2022/03/03 09:30:03;;;;;;;16.80;10.43;;;3.00;99.90;;;;;;5035995;28;20219;-78
2022/03/03 09:32:29;;;;;;;19.33;11.63;;;3.00;99.90;;;;;;5035813;28;20194;-78
2022/03/03 09:34:55;;;;;;;16.97;11.20;;;3.10;99.90;;;;;;5019036;28;20217;-78
2022/03/03 09:37:20;;;;;;;20.70;12.93;;;3.20;99.90;;;;;;5019203;28;20276;-78
2022/03/03 09:39:48;;;;;;;15.83;11.47;;;3.40;99.90;;;;;;5019376;28;20669;-78
2022/03/03 09:42:13;;;;;;;17.73;11.60;;;3.50;99.90;;;;;;5019144;28;20206;-78
2022/03/03 09:44:39;;;;;;;17.43;11.50;;;3.70;99.90;;;;;;5035438;28;20189;-77
2022/03/03 09:47:05;;;;;;;16.80;11.53;;;3.90;99.90;;;;;;5035420;28;20619;-77
2022/03/03 09:49:30;;;;;;;17.80;11.20;;;4.10;99.90;;;;;;5035360;28;20180;-78
2022/03/03 09:51:56;;;;;;;15.97;10.97;;;4.30;99.90;;;;;;5035581;28;20322;-77
2022/03/03 09:54:23;;;;;;;13.60;10.23;;;4.40;99.90;;;;;;5035364;28;20183;-77
2022/03/03 09:56:48;;;;;;;15.73;10.30;;;4.60;99.90;;;;;;5035170;28;20747;-77
2022/03/03 09:59:14;;;;;;;13.27;10.20;;;4.80;99.90;;;;;;5035329;28;20282;-78
2022/03/03 10:01:40;;;;;;;14.83;10.27;;;4.90;99.90;;;;;;5035056;28;20206;-78
2022/03/03 10:04:22;;;;;;;13.40;9.47;;;4.90;99.90;;;;;;5034816;28;20267;-77
2022/03/03 10:06:48;;;;;;;14.57;10.13;;;5.10;99.90;;;;;;5052725;28;20291;-78
2022/03/03 10:09:16;;;;;;;16.33;10.20;;;5.30;99.90;;;;;;5034945;28;20271;-77
2022/03/03 10:11:48;;;;;;;13.50;9.93;;;5.40;99.90;;;;;;5034869;28;20197;-77
2022/03/03 10:14:14;;;;;;;14.53;10.10;;;5.50;99.90;;;;;;5052541;28;20172;-78
2022/03/03 10:16:47;;;;;;;17.00;10.90;;;5.70;99.90;;;;;;5034812;28;20268;-78
2022/03/03 10:19:13;;;;;;;14.80;10.40;;;5.90;99.90;;;;;;5034934;28;20276;-78
2022/03/03 10:21:41;;;;;;;16.67;11.57;;;6.00;99.90;;;;;;5034707;28;20314;-78
2022/03/03 10:24:21;;;;;;;14.97;10.93;;;6.20;99.90;;;;;;5052395;28;20177;-77
2022/03/03 10:26:59;;;;;;;18.37;11.30;;;6.40;99.90;;;;;;5034714;28;20560;-78
2022/03/03 10:29:26;;;;;;;15.53;10.97;;;6.70;99.90;;;;;;5034846;28;20177;-78
2022/03/03 10:31:54;;;;;;;16.63;11.20;;;6.80;99.90;;;;;;5034494;28;20225;-78
2022/03/03 10:34:22;;;;;;;16.63;10.80;;;7.00;99.90;;;;;;5034465;28;20664;-78
2022/03/03 10:36:58;;;;;;;17.70;12.00;;;7.20;99.90;;;;;;5034679;28;20177;-78
2022/03/03 10:39:24;;;;;;;16.73;11.30;;;7.20;99.90;;;;;;5034699;28;20178;-77
2022/03/03 10:41:55;;;;;;;15.23;11.13;;;7.30;99.90;;;;;;5034783;28;20258;-78
2022/03/03 10:44:27;;;;;;;16.23;11.43;;;7.40;99.90;;;;;;5052978;28;20187;-77
2022/03/03 10:47:08;;;;;;;15.63;10.67;;;7.30;99.90;;;;;;5035148;28;20199;-78
2022/03/03 10:49:36;;;;;;;14.23;10.53;;;7.40;99.90;;;;;;5018817;28;20207;-77
2022/03/03 10:52:29;;;;;;;14.87;10.47;;;7.70;99.90;;;;;;5051549;28;20553;-77
2022/03/03 10:55:07;;;;;;;12.03;9.40;;;7.80;99.90;;;;;;5032333;28;20563;-77
2022/03/03 10:57:56;;;;;;;13.87;9.90;;;8.00;99.90;;;;;;5034832;28;20183;-78
2022/03/03 11:00:24;;;;;;;13.83;9.90;;;8.20;99.90;;;;;;5018974;28;20179;-78
2022/03/03 11:02:52;;;;;;;15.70;9.60;;;8.40;99.90;;;;;;5034882;28;20192;-79
2022/03/03 11:05:19;;;;;;;12.33;9.70;;;8.70;99.90;;;;;;5035046;28;20195;-78
2022/03/03 11:07:47;;;;;;;11.63;9.00;;;8.90;99.90;;;;;;5033837;28;20204;-77
2022/03/03 11:10:16;;;;;;;10.67;8.47;;;9.10;99.90;;;;;;5018169;28;20238;-77
2022/03/03 11:12:43;;;;;;;11.30;8.50;;;9.30;99.20;;;;;;5018581;28;20180;-79
2022/03/03 11:15:10;;;;;;;17.80;10.23;;;9.40;98.70;;;;;;5035378;28;20173;-79
2022/03/03 11:17:36;;;;;;;12.40;8.63;;;9.60;99.90;;;;;;5019112;28;20724;-79
2022/03/03 11:20:04;;;;;;;10.67;8.27;;;10.30;99.90;;;;;;5018991;28;20181;-79
2022/03/03 11:22:33;;;;;;;11.60;8.47;;;10.60;98.30;;;;;;5072168;23;20385;-79
2022/03/03 11:25:02;;;;;;;10.30;8.07;;;10.70;99.90;;;;;;5071732;28;20177;-78
2022/03/03 11:27:46;;;;;;;10.33;7.80;;;10.70;96.30;;;;;;5037879;28;20281;-76
2022/03/03 11:30:14;;;;;;;10.83;7.90;;;10.60;94.60;;;;;;5054691;28;20175;-76
2022/03/03 11:32:40;;;;;;;10.83;8.40;;;10.40;92.60;;;;;;5034350;28;20207;-76
2022/03/03 11:35:08;;;;;;;22.17;19.80;;;10.50;95.10;;;;;;5050741;28;20175;-76
2022/03/03 11:37:59;;;;;;;8.80;6.97;;;10.70;93.10;;;;;;5050578;28;20181;-76
2022/03/03 11:40:24;;;;;;;9.37;6.93;;;10.80;84.30;;;;;;5050986;28;20559;-76
2022/03/03 11:42:53;;;;;;;8.13;6.20;;;11.00;79.20;;;;;;5050789;28;20665;-77
2022/03/03 11:45:28;;;;;;;7.87;6.57;;;10.90;76.60;;;;;;5051163;28;20172;-76
2022/03/03 11:48:09;;;;;;;8.93;7.23;;;11.00;71.30;;;;;;5050961;28;20216;-76
2022/03/03 11:50:34;;;;;;;9.53;6.70;;;11.00;74.60;;;;;;5051251;28;20224;-76
2022/03/03 11:53:00;;;;;;;8.33;6.17;;;11.40;84.70;;;;;;5050874;28;20585;-77
2022/03/03 12:42:02;;;;;;;7.83;6.53;;;13.90;61.10;;;;;;5723195;22;20222;-78
2022/03/03 12:44:34;;;;;;;8.30;6.33;;;13.70;60.80;;;;;;4978420;28;20202;-78
2022/03/03 12:47:00;;;;;;;8.07;6.40;;;13.50;59.70;;;;;;4953644;28;20282;-77
2022/03/03 12:49:25;;;;;;;7.97;6.80;;;13.20;59.80;;;;;;4968363;28;20190;-77
2022/03/03 12:51:51;;;;;;;8.20;6.80;;;13.10;63.50;;;;;;4997560;28;20233;-77
2022/03/03 12:54:18;;;;;;;8.97;6.90;;;12.60;64.00;;;;;;4990623;22;20187;-77
2022/03/03 12:56:58;;;;;;;8.83;7.10;;;12.80;65.90;;;;;;4999570;28;20545;-77
2022/03/03 12:59:36;;;;;;;8.07;6.70;;;12.90;65.80;;;;;;5034505;28;20166;-77
2022/03/03 13:02:02;;;;;;;9.57;7.27;;;13.30;66.70;;;;;;5010393;28;20321;-77
2022/03/03 13:04:28;;;;;;;9.77;7.73;;;12.60;64.00;;;;;;5013690;28;20306;-77
2022/03/03 13:07:12;;;;;;;8.80;7.10;;;12.80;65.30;;;;;;4997546;28;20442;-77
2022/03/03 13:09:56;;;;;;;9.13;7.80;;;13.50;68.40;;;;;;5013576;28;20186;-77
2022/03/03 13:12:23;;;;;;;8.97;7.43;;;13.60;65.50;;;;;;4997268;28;20203;-77
2022/03/03 13:14:59;;;;;;;10.00;7.90;;;13.60;65.40;;;;;;4997065;28;20286;-77
2022/03/03 13:17:26;;;;;;;10.03;8.00;;;13.70;64.30;;;;;;4997047;28;20253;-77
2022/03/03 13:19:52;;;;;;;12.40;7.30;;;13.80;62.60;;;;;;5003071;28;20274;-77
2022/03/03 13:22:17;;;;;;;9.77;7.47;;;13.70;63.60;;;;;;5036315;28;20276;-77
2022/03/03 13:24:44;;;;;;;9.47;7.77;;;13.00;60.80;;;;;;4997052;28;20293;-77
2022/03/03 13:27:09;;;;;;;10.27;7.60;;;13.30;65.50;;;;;;4996621;28;20209;-77
2022/03/03 13:29:38;;;;;;;8.50;7.57;;;13.60;64.60;;;;;;4980937;28;20186;-77
2022/03/03 13:32:14;;;;;;;9.17;7.47;;;13.80;63.20;;;;;;4980153;28;20183;-77